createdAt,value
2018-11-29T00:01:02.992Z,7.40
2018-11-29T00:03:31.212Z,7.00
2018-11-29T00:05:59.465Z,7.10
2018-11-29T00:08:27.747Z,7.58
2018-11-29T00:10:55.966Z,7.57
2018-11-29T00:13:24.286Z,7.80
2018-11-29T00:15:52.543Z,7.03
2018-11-29T00:18:20.864Z,7.50
2018-11-29T00:20:49.099Z,7.30
2018-11-29T00:23:17.302Z,7.62
2018-11-29T00:25:45.518Z,7.55
2018-11-29T00:28:13.760Z,6.90
2018-11-29T00:30:42.025Z,6.97
2018-11-29T00:33:10.325Z,6.85
2018-11-29T00:35:38.543Z,7.00
2018-11-29T00:38:06.818Z,7.40
2018-11-29T00:40:35.028Z,6.90
2018-11-29T00:43:03.272Z,7.10
2018-11-29T00:45:31.579Z,6.80
2018-11-29T00:47:59.828Z,7.03
2018-11-29T00:50:28.157Z,7.30
2018-11-29T00:52:56.428Z,7.03
2018-11-29T00:55:24.693Z,7.00
2018-11-29T00:57:53.294Z,7.08
2018-11-29T01:00:23.234Z,7.00
2018-11-29T01:02:51.512Z,6.90
2018-11-29T01:05:19.804Z,7.10
2018-11-29T01:07:48.099Z,6.90
2018-11-29T01:10:17.686Z,6.90
2018-11-29T01:12:46.431Z,6.90
2018-11-29T01:15:15.618Z,6.60
2018-11-29T01:17:44.590Z,6.67
2018-11-29T01:20:13.784Z,7.00
2018-11-29T01:22:42.047Z,6.75
2018-11-29T01:25:11.303Z,6.70
2018-11-29T01:27:39.799Z,6.50
2018-11-29T01:30:10.574Z,6.00
2018-11-29T01:32:38.849Z,6.80
2018-11-29T01:35:07.963Z,6.00
2018-11-29T01:37:36.196Z,6.45
2018-11-29T01:40:04.719Z,6.70
2018-11-29T01:42:32.979Z,6.50
2018-11-29T01:45:01.196Z,6.30
2018-11-29T01:47:29.596Z,6.20
2018-11-29T01:49:57.947Z,6.70
2018-11-29T01:52:26.145Z,6.28
2018-11-29T01:54:54.383Z,6.60
2018-11-29T01:57:22.647Z,6.47
2018-11-29T01:59:50.945Z,6.65
2018-11-29T02:02:19.151Z,6.10
2018-11-29T02:04:47.481Z,6.35
2018-11-29T02:07:15.727Z,5.80
2018-11-29T02:09:43.993Z,6.50
2018-11-29T02:12:12.307Z,5.60
2018-11-29T02:14:40.582Z,5.87
2018-11-29T02:17:08.797Z,5.78
2018-11-29T02:19:37.160Z,6.10
2018-11-29T02:22:05.665Z,5.90
2018-11-29T02:24:33.991Z,5.85
2018-11-29T02:27:02.213Z,5.80
2018-11-29T02:29:30.414Z,6.03
2018-11-29T02:31:58.660Z,5.70
2018-11-29T02:34:26.902Z,5.50
2018-11-29T02:36:55.093Z,6.00
2018-11-29T02:39:23.353Z,5.95
2018-11-29T02:41:51.561Z,6.40
2018-11-29T02:44:19.925Z,6.20
2018-11-29T02:46:48.181Z,6.28
2018-11-29T02:49:16.474Z,5.90
2018-11-29T02:51:44.714Z,6.40
2018-11-29T02:54:13.002Z,6.20
2018-11-29T02:56:41.259Z,6.70
2018-11-29T02:59:09.553Z,6.90
2018-11-29T03:01:37.848Z,6.45
2018-11-29T03:04:06.429Z,6.67
2018-11-29T03:06:34.657Z,6.10
2018-11-29T03:09:02.885Z,6.40
2018-11-29T03:11:31.137Z,6.35
2018-11-29T03:13:59.980Z,6.55
2018-11-29T03:16:28.257Z,6.47
2018-11-29T03:18:56.484Z,6.40
2018-11-29T03:21:24.749Z,6.20
2018-11-29T03:23:53.021Z,6.50
2018-11-29T03:26:21.293Z,6.40
2018-11-29T03:28:49.591Z,6.37
2018-11-29T03:31:18.771Z,6.58
2018-11-29T03:33:47.058Z,6.50
2018-11-29T03:36:15.261Z,7.30
2018-11-29T03:38:43.508Z,6.55
2018-11-29T03:41:11.802Z,6.53
2018-11-29T03:43:40.162Z,6.67
2018-11-29T03:46:08.435Z,7.08
2018-11-29T03:48:36.668Z,6.60
2018-11-29T03:51:05.339Z,6.60
2018-11-29T03:53:33.613Z,6.53
2018-11-29T03:56:01.879Z,6.87
2018-11-29T03:58:30.081Z,6.62
2018-11-29T04:00:58.357Z,6.47
2018-11-29T04:03:26.585Z,6.90
2018-11-29T04:05:54.833Z,7.17
2018-11-29T04:08:23.076Z,7.20
2018-11-29T04:10:51.621Z,6.47
2018-11-29T04:13:19.902Z,7.28
2018-11-29T04:15:48.176Z,7.17
2018-11-29T04:18:16.441Z,6.80
2018-11-29T04:20:44.730Z,6.60
2018-11-29T04:23:12.987Z,7.05
2018-11-29T04:25:41.225Z,7.05
2018-11-29T04:28:09.465Z,6.50
2018-11-29T04:30:37.748Z,7.20
2018-11-29T04:33:05.980Z,6.77
2018-11-29T04:35:34.251Z,7.80
2018-11-29T04:38:02.493Z,7.00
2018-11-29T04:40:30.827Z,7.62
2018-11-29T04:42:59.069Z,8.38
2018-11-29T04:45:36.230Z,7.10
2018-11-29T04:48:09.870Z,7.30
2018-11-29T04:50:32.818Z,7.00
2018-11-29T04:53:01.087Z,7.10
2018-11-29T04:55:29.402Z,7.17
2018-11-29T04:57:57.766Z,7.50
2018-11-29T05:00:26.149Z,7.00
2018-11-29T05:02:54.369Z,7.13
2018-11-29T05:05:22.616Z,7.10
2018-11-29T05:07:50.873Z,7.42
2018-11-29T05:10:19.081Z,6.97
2018-11-29T05:12:47.873Z,7.25
2018-11-29T05:15:16.181Z,6.83
2018-11-29T05:17:44.503Z,6.83
2018-11-29T05:20:12.749Z,7.20
2018-11-29T05:22:41.018Z,6.72
2018-11-29T05:25:09.536Z,7.00
2018-11-29T05:27:37.933Z,6.50
2018-11-29T05:30:11.020Z,6.87
2018-11-29T05:32:39.365Z,6.72
2018-11-29T05:35:09.321Z,6.70
2018-11-29T05:37:37.573Z,6.55
2018-11-29T05:40:07.868Z,6.67
2018-11-29T05:42:36.164Z,7.00
2018-11-29T05:45:04.612Z,6.60
2018-11-29T05:47:32.925Z,6.80
2018-11-29T05:50:01.125Z,6.80
2018-11-29T05:52:29.342Z,6.37
2018-11-29T05:54:57.553Z,7.17
2018-11-29T05:57:25.809Z,6.65
2018-11-29T05:59:54.054Z,6.92
2018-11-29T06:02:22.352Z,6.65
2018-11-29T06:04:50.544Z,6.80
2018-11-29T06:07:18.795Z,6.53
2018-11-29T06:09:47.091Z,7.47
2018-11-29T06:12:15.358Z,6.20
2018-11-29T06:14:43.628Z,6.70
2018-11-29T06:17:11.893Z,6.70
2018-11-29T06:19:40.099Z,6.80
2018-11-29T06:22:08.349Z,7.05
2018-11-29T06:24:36.661Z,6.47
2018-11-29T06:27:04.887Z,6.60
2018-11-29T06:29:33.143Z,7.15
2018-11-29T06:32:01.421Z,7.80
2018-11-29T06:34:29.653Z,7.60
2018-11-29T06:36:57.963Z,6.62
2018-11-29T06:39:26.211Z,7.25
2018-11-29T06:41:54.421Z,6.60
2018-11-29T06:44:22.671Z,6.28
2018-11-29T06:46:50.925Z,6.93
2018-11-29T06:49:19.169Z,7.17
2018-11-29T06:51:47.489Z,6.23
2018-11-29T06:54:15.760Z,7.45
2018-11-29T06:56:43.989Z,6.45
2018-11-29T06:59:12.207Z,6.95
2018-11-29T07:01:40.436Z,6.30
2018-11-29T07:04:08.655Z,6.25
2018-11-29T07:06:36.925Z,6.67
2018-11-29T07:09:07.877Z,6.53
2018-11-29T07:11:36.085Z,7.03
2018-11-29T07:14:04.369Z,6.90
2018-11-29T07:16:32.606Z,5.80
2018-11-29T07:19:00.905Z,6.67
2018-11-29T07:21:44.352Z,6.55
2018-11-29T07:24:12.591Z,6.10
2018-11-29T07:26:40.823Z,6.62
2018-11-29T07:29:09.078Z,6.40
2018-11-29T07:31:37.394Z,6.67
2018-11-29T07:34:05.899Z,6.22
2018-11-29T07:36:34.144Z,6.60
2018-11-29T07:39:02.465Z,6.40
2018-11-29T07:41:30.711Z,6.45
2018-11-29T07:43:59.023Z,6.17
2018-11-29T07:46:27.252Z,6.13
2018-11-29T07:48:55.552Z,6.17
2018-11-29T07:51:23.790Z,6.00
2018-11-29T07:53:52.096Z,5.80
2018-11-29T07:56:20.305Z,6.30
2018-11-29T07:58:51.537Z,6.62
2018-11-29T08:01:16.806Z,6.50
2018-11-29T08:03:45.031Z,5.95
2018-11-29T08:06:13.290Z,5.70
2018-11-29T08:08:41.583Z,5.62
2018-11-29T08:11:09.801Z,5.80
2018-11-29T08:13:38.146Z,5.80
2018-11-29T08:16:07.108Z,6.20
2018-11-29T08:18:35.539Z,5.78
2018-11-29T08:21:03.887Z,6.00
2018-11-29T08:23:32.142Z,5.87
2018-11-29T08:26:00.406Z,6.20
2018-11-29T08:28:28.660Z,6.40
2018-11-29T08:30:56.898Z,6.00
2018-11-29T08:33:25.148Z,5.90
2018-11-29T08:35:53.438Z,6.60
2018-11-29T08:38:21.682Z,6.03
2018-11-29T08:40:49.975Z,6.40
2018-11-29T08:43:18.228Z,5.90
2018-11-29T08:45:46.449Z,5.95
2018-11-29T08:48:14.723Z,6.03
2018-11-29T08:50:42.952Z,5.30
2018-11-29T08:53:11.215Z,5.25
2018-11-29T08:55:39.506Z,5.15
2018-11-29T08:58:07.774Z,5.45
2018-11-29T09:00:36.086Z,5.40
2018-11-29T09:03:04.322Z,5.30
2018-11-29T09:05:34.088Z,6.20
2018-11-29T09:08:00.897Z,6.00
2018-11-29T09:10:31.750Z,5.90
2018-11-29T09:12:57.425Z,5.53
2018-11-29T09:15:25.679Z,5.55
2018-11-29T09:17:53.897Z,5.08
2018-11-29T09:20:22.606Z,5.08
2018-11-29T09:22:51.011Z,5.93
2018-11-29T09:25:23.015Z,5.08
2018-11-29T09:27:51.414Z,5.03
2018-11-29T09:30:21.208Z,5.17
2018-11-29T09:32:50.547Z,5.35
2018-11-29T09:35:18.743Z,5.37
2018-11-29T09:37:47.103Z,5.97
2018-11-29T09:40:16.265Z,5.40
2018-11-29T09:42:44.732Z,5.47
2018-11-29T09:45:14.211Z,4.95
2018-11-29T09:47:42.836Z,5.00
2018-11-29T09:50:13.200Z,5.00
2018-11-29T09:52:41.658Z,4.45
2018-11-29T09:55:12.769Z,4.70
2018-11-29T09:57:41.212Z,4.67
2018-11-29T10:00:28.178Z,4.67
2018-11-29T10:03:12.109Z,4.00
2018-11-29T10:05:41.428Z,4.30
2018-11-29T10:08:12.069Z,4.15
2018-11-29T10:10:39.106Z,3.92
2018-11-29T10:13:07.337Z,4.37
2018-11-29T10:15:35.610Z,3.80
2018-11-29T10:18:03.957Z,4.20
2018-11-29T10:20:32.414Z,3.90
2018-11-29T10:23:00.693Z,3.80
2018-11-29T10:25:28.913Z,4.20
2018-11-29T10:28:00.926Z,3.73
2018-11-29T10:30:31.125Z,4.15
2018-11-29T10:32:59.447Z,3.98
2018-11-29T10:35:27.675Z,4.30
2018-11-29T10:37:56.014Z,3.83
2018-11-29T10:40:24.349Z,4.27
2018-11-29T10:42:53.386Z,4.30
2018-11-29T10:45:21.747Z,3.90
2018-11-29T10:47:52.835Z,4.03
2018-11-29T10:50:20.654Z,4.05
2018-11-29T10:52:48.881Z,4.10
2018-11-29T10:55:18.141Z,4.40
2018-11-29T10:57:46.438Z,4.05
2018-11-29T11:01:23.943Z,4.75
2018-11-29T11:03:52.257Z,3.70
2018-11-29T11:06:20.554Z,4.20
2018-11-29T11:08:48.844Z,4.10
2018-11-29T11:11:17.050Z,4.00
2018-11-29T11:13:45.269Z,3.87
2018-11-29T11:16:13.554Z,3.63
2018-11-29T11:18:41.818Z,3.25
2018-11-29T11:21:10.091Z,3.60
2018-11-29T11:23:38.296Z,3.40
2018-11-29T11:26:06.528Z,3.55
2018-11-29T11:28:34.853Z,3.40
2018-11-29T11:31:03.676Z,3.33
2018-11-29T11:33:32.002Z,3.57
2018-11-29T11:36:00.234Z,3.40
2018-11-29T11:38:29.153Z,3.80
2018-11-29T11:40:57.452Z,3.30
2018-11-29T11:43:25.689Z,3.25
2018-11-29T11:45:54.000Z,3.05
2018-11-29T11:48:22.368Z,2.70
2018-11-29T11:50:50.636Z,2.50
2018-11-29T11:53:18.921Z,2.90
2018-11-29T11:55:53.382Z,2.80
2018-11-29T11:58:15.440Z,2.50
2018-11-29T12:00:43.742Z,2.95
2018-11-29T12:03:15.321Z,3.00
2018-11-29T12:05:43.689Z,2.90
2018-11-29T12:08:12.001Z,3.20
2018-11-29T12:10:41.467Z,3.40
2018-11-29T12:13:09.741Z,3.10
2018-11-29T12:15:38.451Z,3.60
2018-11-29T12:18:10.527Z,3.35
2018-11-29T12:20:38.967Z,3.20
2018-11-29T12:23:08.041Z,3.70
2018-11-29T12:25:36.280Z,3.70
2018-11-29T12:28:04.526Z,3.50
2018-11-29T12:30:36.687Z,3.50
2018-11-29T12:33:06.513Z,3.15
2018-11-29T12:35:34.768Z,3.50
2018-11-29T12:38:03.000Z,3.20
2018-11-29T12:40:31.337Z,3.47
2018-11-29T12:42:59.552Z,3.53
2018-11-29T12:45:27.788Z,3.80
2018-11-29T12:47:56.005Z,3.53
2018-11-29T12:50:25.482Z,4.10
2018-11-29T12:52:53.727Z,3.80
2018-11-29T12:55:23.200Z,4.50
2018-11-29T13:00:21.149Z,3.97
2018-11-29T13:02:50.432Z,3.80
2018-11-29T13:03:02.510Z,4.10
2018-11-29T13:05:18.697Z,3.55
2018-11-29T13:07:46.925Z,3.55
2018-11-29T13:10:17.319Z,3.50
2018-11-29T13:12:45.629Z,3.37
2018-11-29T13:15:16.277Z,3.50
2018-11-29T13:17:44.757Z,3.05
2018-11-29T13:20:14.177Z,3.00
2018-11-29T13:22:42.505Z,2.80
2018-11-29T13:25:12.066Z,2.87
2018-11-29T13:27:41.210Z,3.12
2018-11-29T13:30:11.128Z,3.00
2018-11-29T13:32:39.366Z,3.40
2018-11-29T13:35:12.931Z,3.42
2018-11-29T13:37:41.185Z,3.67
2018-11-29T13:40:11.024Z,3.70
2018-11-29T13:42:39.358Z,3.47
2018-11-29T13:45:09.247Z,4.30
2018-11-29T13:47:38.148Z,3.70
2018-11-29T13:50:09.373Z,4.27
2018-11-29T13:52:37.613Z,4.00
2018-11-29T13:55:06.953Z,4.10
2018-11-29T13:57:35.237Z,4.10
2018-11-29T14:00:03.493Z,4.63
2018-11-29T14:02:31.743Z,5.12
2018-11-29T14:05:00.052Z,4.97
2018-11-29T14:07:28.362Z,4.62
2018-11-29T14:09:56.560Z,4.70
2018-11-29T14:12:24.884Z,4.20
2018-11-29T14:14:53.146Z,4.85
2018-11-29T14:17:21.483Z,4.83
2018-11-29T14:19:49.718Z,5.22
2018-11-29T14:22:17.929Z,4.78
2018-11-29T14:24:46.196Z,5.03
2018-11-29T14:27:14.448Z,4.50
2018-11-29T14:29:42.815Z,4.80
2018-11-29T14:32:11.287Z,4.70
2018-11-29T14:34:39.384Z,4.30
2018-11-29T14:37:07.625Z,4.42
2018-11-29T14:39:35.857Z,4.30
2018-11-29T14:42:04.108Z,4.83
2018-11-29T14:44:32.435Z,12.00
2018-11-29T14:47:00.660Z,11.20
2018-11-29T14:49:28.930Z,11.80
2018-11-29T14:51:57.200Z,7.50
2018-11-29T14:54:25.489Z,9.30
2018-11-29T14:56:53.773Z,6.20
2018-11-29T14:59:22.028Z,5.80
2018-11-29T15:01:50.324Z,5.30
2018-11-29T15:04:18.599Z,5.15
2018-11-29T15:06:46.855Z,7.70
2018-11-29T15:09:15.085Z,5.37
2018-11-29T15:11:43.364Z,5.90
2018-11-29T15:14:11.631Z,7.63
2018-11-29T15:16:40.199Z,5.85
2018-11-29T15:19:08.481Z,6.17
2018-11-29T15:21:36.748Z,8.25
2018-11-29T15:24:05.097Z,5.80
2018-11-29T15:26:33.324Z,5.92
2018-11-29T15:29:01.661Z,6.08
2018-11-29T15:31:29.920Z,6.20
2018-11-29T15:33:58.193Z,5.00
2018-11-29T15:36:26.419Z,5.23
2018-11-29T15:38:54.669Z,4.40
2018-11-29T15:41:22.924Z,4.40
2018-11-29T15:43:51.165Z,3.70
2018-11-29T15:46:19.368Z,3.60
2018-11-29T15:48:47.688Z,4.15
2018-11-29T15:51:15.936Z,3.60
2018-11-29T15:53:44.197Z,4.00
2018-11-29T15:56:12.449Z,3.70
2018-11-29T15:58:40.757Z,3.70
2018-11-29T16:01:09.057Z,4.40
2018-11-29T16:03:37.315Z,5.10
2018-11-29T16:06:05.707Z,5.15
2018-11-29T16:08:33.922Z,3.83
2018-11-29T16:11:02.251Z,3.85
2018-11-29T16:13:30.499Z,4.13
2018-11-29T16:15:58.709Z,3.50
2018-11-29T16:18:26.970Z,3.83
2018-11-29T16:20:55.268Z,3.90
2018-11-29T16:23:23.510Z,3.80
2018-11-29T16:25:52.891Z,4.27
2018-11-29T16:28:21.106Z,4.40
2018-11-29T16:30:52.845Z,4.28
2018-11-29T16:33:24.725Z,4.10
2018-11-29T16:35:52.935Z,4.70
2018-11-29T16:38:21.175Z,4.60
2018-11-29T16:40:49.445Z,4.30
2018-11-29T16:43:17.699Z,4.70
2018-11-29T16:45:45.923Z,4.50
2018-11-29T16:48:14.271Z,4.20
2018-11-29T16:50:42.560Z,4.22
2018-11-29T16:53:10.827Z,4.60
2018-11-29T16:55:39.293Z,5.72
2018-11-29T16:58:10.125Z,4.60
2018-11-29T17:00:38.381Z,4.55
2018-11-29T17:03:06.645Z,5.83
2018-11-29T17:05:34.917Z,4.95
2018-11-29T17:08:03.442Z,4.53
2018-11-29T17:10:31.763Z,4.30
2018-11-29T17:13:01.596Z,4.55
2018-11-29T17:15:29.940Z,4.45
2018-11-29T17:17:58.201Z,4.87
2018-11-29T17:20:26.467Z,4.50
2018-11-29T17:22:54.741Z,4.90
2018-11-29T17:25:23.036Z,4.83
2018-11-29T17:27:51.273Z,4.35
2018-11-29T17:30:20.619Z,4.97
2018-11-29T17:32:49.672Z,4.72
2018-11-29T17:35:18.001Z,4.53
2018-11-29T17:37:47.053Z,6.47
2018-11-29T17:40:20.407Z,5.95
2018-11-29T17:42:48.662Z,6.78
2018-11-29T17:45:20.299Z,7.55
2018-11-29T17:47:48.984Z,6.60
2018-11-29T17:50:19.712Z,5.42
2018-11-29T17:52:47.956Z,5.40
2018-11-29T17:55:16.172Z,5.78
2018-11-29T17:57:44.417Z,10.15
2018-11-29T18:00:15.597Z,5.67
2018-11-29T18:02:44.003Z,5.10
2018-11-29T18:05:12.241Z,5.50
2018-11-29T18:07:40.490Z,4.90
2018-11-29T18:10:16.881Z,5.20
2018-11-29T18:12:46.007Z,9.40
2018-11-29T18:15:18.673Z,8.05
2018-11-29T18:17:46.905Z,4.80
2018-11-29T18:20:15.217Z,8.00
2018-11-29T18:22:43.481Z,4.63
2018-11-29T18:25:12.957Z,5.22
2018-11-29T18:27:42.787Z,5.25
2018-11-29T18:30:14.840Z,4.63
2018-11-29T18:32:43.076Z,4.40
2018-11-29T18:35:12.018Z,4.97
2018-11-29T18:37:40.415Z,5.00
2018-11-29T18:40:15.769Z,4.75
2018-11-29T18:42:44.288Z,5.13
2018-11-29T18:45:14.692Z,5.90
2018-11-29T18:47:43.646Z,6.55
2018-11-29T18:50:13.365Z,5.70
2018-11-29T18:52:41.642Z,5.70
2018-11-29T18:55:10.336Z,5.00
2018-11-29T18:57:38.575Z,9.63
2018-11-29T19:00:10.995Z,6.90
2018-11-29T19:02:39.245Z,5.78
2018-11-29T19:05:08.233Z,5.90
2018-11-29T19:07:36.571Z,7.60
2018-11-29T19:10:08.070Z,5.60
2018-11-29T19:12:36.391Z,5.50
2018-11-29T19:15:05.761Z,9.28
2018-11-29T19:17:34.011Z,5.90
2018-11-29T19:20:02.251Z,5.80
2018-11-29T19:22:30.551Z,5.77
2018-11-29T19:24:58.876Z,5.80
2018-11-29T19:27:27.088Z,7.53
2018-11-29T19:29:55.394Z,5.70
2018-11-29T19:32:23.687Z,5.92
2018-11-29T19:34:51.928Z,6.20
2018-11-29T19:37:20.194Z,6.15
2018-11-29T19:39:48.431Z,5.70
2018-11-29T19:42:16.755Z,7.40
2018-11-29T19:44:44.923Z,7.12
2018-11-29T19:47:13.224Z,6.87
2018-11-29T19:49:41.500Z,6.15
2018-11-29T19:52:09.797Z,5.60
2018-11-29T19:54:38.076Z,5.63
2018-11-29T19:57:06.542Z,7.10
2018-11-29T19:59:34.850Z,6.20
2018-11-29T20:02:03.087Z,6.20
2018-11-29T20:04:31.379Z,6.87
2018-11-29T20:06:59.662Z,7.15
2018-11-29T20:09:27.900Z,6.25
2018-11-29T20:11:56.226Z,6.03
2018-11-29T20:14:24.467Z,6.40
2018-11-29T20:16:52.743Z,6.58
2018-11-29T20:19:20.982Z,7.47
2018-11-29T20:21:49.303Z,14.53
2018-11-29T20:24:17.548Z,13.20
2018-11-29T20:26:45.820Z,11.30
2018-11-29T20:29:14.166Z,13.10
2018-11-29T20:31:42.377Z,13.10
2018-11-29T20:34:10.669Z,13.22
2018-11-29T20:36:38.919Z,12.63
2018-11-29T20:39:09.177Z,8.55
2018-11-29T20:41:37.467Z,8.85
2018-11-29T20:44:05.852Z,7.72
2018-11-29T20:46:34.159Z,7.00
2018-11-29T20:49:02.396Z,6.50
2018-11-29T20:51:30.630Z,6.60
2018-11-29T20:53:58.959Z,6.17
2018-11-29T20:56:27.193Z,6.00
2018-11-29T20:58:55.459Z,6.33
2018-11-29T21:01:23.808Z,6.22
2018-11-29T21:03:52.072Z,6.05
2018-11-29T21:06:20.336Z,6.50
2018-11-29T21:08:48.613Z,6.60
2018-11-29T21:11:16.888Z,9.45
2018-11-29T21:13:45.199Z,8.98
2018-11-29T21:16:13.453Z,5.40
2018-11-29T21:18:41.690Z,4.40
2018-11-29T21:21:09.980Z,4.87
2018-11-29T21:23:38.205Z,4.90
2018-11-29T21:26:06.713Z,4.45
2018-11-29T21:28:35.078Z,4.70
2018-11-29T21:31:03.352Z,4.53
2018-11-29T21:33:31.593Z,5.05
2018-11-29T21:35:59.967Z,5.17
2018-11-29T21:38:28.233Z,4.95
2018-11-29T21:40:59.197Z,5.40
2018-11-29T21:43:27.480Z,5.17
2018-11-29T21:45:55.745Z,5.53
2018-11-29T21:48:23.981Z,5.37
2018-11-29T21:50:52.217Z,5.30
2018-11-29T21:53:20.568Z,5.70
2018-11-29T21:55:48.824Z,5.20
2018-11-29T21:58:17.046Z,5.40
2018-11-29T22:00:45.300Z,5.90
2018-11-29T22:03:13.536Z,5.40
2018-11-29T22:05:41.769Z,5.53
2018-11-29T22:08:09.994Z,5.50
2018-11-29T22:10:38.210Z,5.40
2018-11-29T22:13:06.442Z,5.87
2018-11-29T22:15:34.727Z,5.40
2018-11-29T22:18:19.945Z,5.80
2018-11-29T22:20:50.558Z,6.00
2018-11-29T22:23:18.822Z,5.78
2018-11-29T22:25:47.029Z,5.40
2018-11-29T22:28:15.265Z,5.90
2018-11-29T22:30:43.538Z,5.47
2018-11-29T22:33:11.793Z,5.53
2018-11-29T22:35:40.107Z,5.17
2018-11-29T22:38:08.661Z,5.00
2018-11-29T22:40:37.003Z,5.62
2018-11-29T22:43:05.309Z,5.22
2018-11-29T22:45:33.624Z,5.12
2018-11-29T22:48:01.881Z,4.80
2018-11-29T22:50:30.129Z,4.80
2018-11-29T22:52:58.434Z,4.60
2018-11-29T22:55:26.658Z,5.10
2018-11-29T22:57:54.894Z,4.50
2018-11-29T23:00:23.143Z,5.42
2018-11-29T23:02:51.428Z,4.70
2018-11-29T23:05:19.701Z,4.30
2018-11-29T23:07:47.889Z,4.40
2018-11-29T23:10:16.141Z,4.83
2018-11-29T23:12:44.375Z,4.90
2018-11-29T23:15:12.944Z,4.55
2018-11-29T23:17:41.168Z,5.10
2018-11-29T23:20:11.572Z,4.80
2018-11-29T23:22:40.386Z,4.75
2018-11-29T23:25:13.200Z,4.72
2018-11-29T23:27:41.538Z,4.60
2018-11-29T23:30:14.614Z,4.70
2018-11-29T23:32:43.078Z,4.87
2018-11-29T23:35:12.151Z,4.47
2018-11-29T23:37:40.433Z,4.70
2018-11-29T23:40:11.198Z,4.50
2018-11-29T23:42:39.537Z,5.05
2018-11-29T23:45:09.349Z,5.07
2018-11-29T23:47:37.709Z,4.90
2018-11-29T23:50:14.689Z,4.92
2018-11-29T23:52:42.984Z,4.60
2018-11-29T23:55:14.422Z,4.80
2018-11-29T23:57:42.687Z,4.40
